createdAt,value
2022-08-19T00:00:28.955Z,99945.71
2022-08-19T00:03:10.548Z,99941.23
2022-08-19T00:05:44.330Z,99952.89
2022-08-19T00:08:18.235Z,99952.06
2022-08-19T00:10:52.136Z,99957.09
2022-08-19T00:13:26.016Z,99951.67
2022-08-19T00:16:02.619Z,99958.11
2022-08-19T00:18:37.349Z,99948.63
2022-08-19T00:21:11.594Z,99959.02
2022-08-19T00:23:45.893Z,99960.02
2022-08-19T00:26:19.902Z,99963.64
2022-08-19T00:28:53.502Z,99962.90
2022-08-19T00:31:29.238Z,99961.28
2022-08-19T00:34:04.876Z,99963.34
2022-08-19T00:36:39.192Z,99961.23
2022-08-19T00:39:13.424Z,99961.70
2022-08-19T00:41:51.005Z,99959.14
2022-08-19T00:44:32.032Z,99959.53
2022-08-19T00:47:07.256Z,99955.30
2022-08-19T00:49:55.607Z,99954.05
2022-08-19T00:52:36.899Z,99959.08
2022-08-19T00:55:13.302Z,99956.64
2022-08-19T00:57:55.939Z,99952.60
2022-08-19T01:00:31.112Z,99942.98
2022-08-19T01:03:04.564Z,99945.39
2022-08-19T01:05:40.008Z,99950.06
2022-08-19T01:08:13.641Z,99948.57
2022-08-19T01:11:00.210Z,99952.48
2022-08-19T01:13:44.564Z,99957.18
2022-08-19T01:16:30.408Z,99953.02
2022-08-19T01:19:04.444Z,99955.39
2022-08-19T01:21:51.165Z,99955.09
2022-08-19T01:24:24.585Z,99947.63
2022-08-19T01:26:58.332Z,99950.59
2022-08-19T01:29:32.351Z,99946.64
2022-08-19T01:32:06.551Z,99947.40
2022-08-19T01:34:40.298Z,99945.61
2022-08-19T01:37:14.863Z,99947.20
2022-08-19T01:40:00.159Z,99946.98
2022-08-19T01:42:34.215Z,99938.13
2022-08-19T01:45:08.857Z,99934.56
2022-08-19T01:47:43.376Z,99944.63
2022-08-19T01:50:38.683Z,99943.08
2022-08-19T01:53:15.025Z,99944.48
2022-08-19T01:55:50.175Z,99946.98
2022-08-19T01:58:27.546Z,99943.98
2022-08-19T02:01:05.014Z,99944.54
2022-08-19T02:03:38.702Z,99941.83
2022-08-19T02:06:12.597Z,99942.91
2022-08-19T02:08:50.772Z,99934.84
2022-08-19T02:11:33.226Z,99942.09
2022-08-19T02:14:09.581Z,99923.12
2022-08-19T02:16:43.398Z,99939.05
2022-08-19T02:19:17.245Z,99937.58
2022-08-19T02:21:51.677Z,99934.66
2022-08-19T02:24:26.706Z,99942.05
2022-08-19T02:27:00.176Z,99941.77
2022-08-19T02:29:33.592Z,99947.86
2022-08-19T02:32:07.316Z,99949.46
2022-08-19T02:34:42.130Z,99945.90
2022-08-19T02:37:35.019Z,99942.78
2022-08-19T02:40:12.693Z,99935.91
2022-08-19T02:42:47.260Z,99931.17
2022-08-19T02:45:21.724Z,99938.43
2022-08-19T02:47:55.504Z,99938.53
2022-08-19T02:50:29.738Z,99931.12
2022-08-19T02:53:03.386Z,99940.77
2022-08-19T02:55:45.967Z,99942.05
2022-08-19T02:58:23.326Z,99946.16
2022-08-19T03:01:00.501Z,99949.06
2022-08-19T03:03:34.723Z,99950.09
2022-08-19T03:06:16.575Z,99951.83
2022-08-19T03:08:54.924Z,99951.41
2022-08-19T03:11:34.492Z,99949.94
2022-08-19T03:14:11.099Z,99960.54
2022-08-19T03:16:55.311Z,99965.27
2022-08-19T03:19:30.037Z,99966.73
2022-08-19T03:22:05.895Z,99971.17
2022-08-19T03:24:39.692Z,99972.45
2022-08-19T03:27:13.665Z,99984.23
2022-08-19T03:29:47.722Z,99985.11
2022-08-19T03:32:32.947Z,99988.87
2022-08-19T03:35:09.589Z,99996.17
2022-08-19T03:37:43.142Z,100003.27
2022-08-19T03:40:16.796Z,99999.81
2022-08-19T03:42:51.397Z,100008.56
2022-08-19T03:45:25.534Z,100008.14
2022-08-19T03:48:01.339Z,100009.79
2022-08-19T03:50:36.673Z,100011.17
2022-08-19T03:53:10.815Z,100011.74
2022-08-19T03:55:45.936Z,100016.58
2022-08-19T03:58:19.553Z,100022.33
2022-08-19T04:00:54.116Z,100022.05
2022-08-19T04:03:30.485Z,100024.89
2022-08-19T04:06:12.685Z,100024.10
2022-08-19T04:08:45.422Z,100027.88
2022-08-19T04:11:24.206Z,100030.50
2022-08-19T04:14:22.322Z,100036.13
2022-08-19T04:16:55.670Z,100034.47
2022-08-19T04:19:30.030Z,100039.38
2022-08-19T04:22:03.083Z,100043.11
2022-08-19T04:24:36.637Z,100041.38
2022-08-19T04:27:09.805Z,100041.70
2022-08-19T04:29:42.721Z,100042.17
2022-08-19T04:32:18.359Z,100038.77
2022-08-19T04:35:02.391Z,100035.98
2022-08-19T04:37:46.712Z,100039.70
2022-08-19T04:40:38.769Z,100043.48
2022-08-19T04:43:14.041Z,100039.89
2022-08-19T04:45:48.878Z,100032.98
2022-08-19T04:48:29.650Z,100031.89
2022-08-19T04:51:04.315Z,100027.84
2022-08-19T04:53:39.611Z,100030.41
2022-08-19T04:56:15.367Z,100032.85
2022-08-19T04:58:49.473Z,100032.87
2022-08-19T05:01:26.248Z,100033.36
2022-08-19T05:04:02.895Z,100038.66
2022-08-19T05:06:38.645Z,100032.76
2022-08-19T05:09:12.484Z,100021.80
2022-08-19T05:11:46.089Z,100030.70
2022-08-19T05:14:19.347Z,100034.36
2022-08-19T05:17:06.416Z,100034.17
2022-08-19T05:20:07.208Z,100034.36
2022-08-19T05:22:42.688Z,100028.73
2022-08-19T05:25:20.911Z,100025.19
2022-08-19T05:27:55.145Z,100032.62
2022-08-19T05:30:42.336Z,100034.15
2022-08-19T05:33:23.580Z,100024.04
2022-08-19T05:35:58.783Z,100022.50
2022-08-19T05:38:32.391Z,100020.03
2022-08-19T05:41:11.685Z,100023.80
2022-08-19T05:43:45.514Z,100022.05
2022-08-19T05:46:27.897Z,100021.54
2022-08-19T05:49:05.685Z,100018.84
2022-08-19T05:51:40.488Z,100018.23
2022-08-19T05:54:15.172Z,100020.54
2022-08-19T05:56:48.893Z,100022.36
2022-08-19T05:59:24.923Z,100021.86
2022-08-19T06:01:59.039Z,100021.23
2022-08-19T06:04:32.316Z,100026.41
2022-08-19T06:07:12.592Z,100020.27
2022-08-19T06:10:00.501Z,100025.36
2022-08-19T06:12:37.030Z,100023.71
2022-08-19T06:15:17.681Z,100019.77
2022-08-19T06:17:51.305Z,100006.71
2022-08-19T06:20:52.331Z,100016.92
2022-08-19T06:23:21.584Z,100015.16
2022-08-19T06:25:57.811Z,100026.41
2022-08-19T06:28:31.700Z,100026.65
2022-08-19T06:31:10.656Z,100026.42
2022-08-19T06:33:43.982Z,100027.75
2022-08-19T06:36:35.499Z,100025.39
2022-08-19T06:39:15.048Z,100033.80
2022-08-19T06:41:53.319Z,100043.39
2022-08-19T06:44:30.471Z,100043.58
2022-08-19T06:47:14.630Z,100045.61
2022-08-19T06:50:05.723Z,100043.20
2022-08-19T06:52:41.002Z,100045.14
2022-08-19T06:55:14.829Z,100044.53
2022-08-19T06:57:49.706Z,100029.63
2022-08-19T07:00:23.498Z,100036.17
2022-08-19T07:03:00.903Z,100025.91
2022-08-19T07:05:45.526Z,100028.91
2022-08-19T07:08:19.751Z,100028.90
2022-08-19T07:10:53.412Z,100031.91
2022-08-19T07:13:28.101Z,100024.55
2022-08-19T07:16:01.918Z,100024.52
2022-08-19T07:18:41.361Z,100015.90
2022-08-19T07:21:29.673Z,100024.14
2022-08-19T07:24:07.135Z,100010.14
2022-08-19T07:26:46.567Z,100018.02
2022-08-19T07:29:28.582Z,100016.21
2022-08-19T07:32:02.663Z,100013.59
2022-08-19T07:34:38.865Z,100017.33
2022-08-19T07:37:13.857Z,100018.60
2022-08-19T07:39:47.516Z,100024.90
2022-08-19T07:42:22.404Z,100023.66
2022-08-19T07:44:56.174Z,100024.77
2022-08-19T07:47:58.759Z,100022.59
2022-08-19T07:50:25.935Z,100031.51
2022-08-19T07:53:00.319Z,100033.76
2022-08-19T07:55:41.793Z,100036.21
2022-08-19T07:58:24.605Z,100028.56
2022-08-19T08:00:58.310Z,100036.13
2022-08-19T08:03:50.678Z,100024.29
2022-08-19T08:06:41.903Z,100035.82
2022-08-19T08:09:27.183Z,100025.36
2022-08-19T08:12:33.087Z,100021.48
2022-08-19T08:15:08.311Z,100018.42
2022-08-19T08:17:49.169Z,100020.48
2022-08-19T08:20:27.799Z,100010.94
2022-08-19T08:23:20.733Z,100019.83
2022-08-19T08:25:56.150Z,100016.63
2022-08-19T08:28:30.661Z,100017.21
2022-08-19T08:31:09.369Z,100024.02
2022-08-19T08:33:45.222Z,100025.89
2022-08-19T08:36:19.241Z,100020.80
2022-08-19T08:42:10.019Z,100011.39
2022-08-19T08:45:17.899Z,100006.73
2022-08-19T08:47:56.130Z,100008.54
2022-08-19T08:50:43.545Z,100008.10
2022-08-19T08:53:29.243Z,100004.40
2022-08-19T08:56:09.991Z,100000.46
2022-08-19T08:59:20.111Z,100006.28
2022-08-19T09:01:53.612Z,100003.41
2022-08-19T09:04:27.110Z,100007.77
2022-08-19T09:07:44.647Z,100009.69
2022-08-19T09:10:47.250Z,100011.81
2022-08-19T09:14:02.469Z,100020.59
2022-08-19T09:16:35.727Z,100014.58
2022-08-19T09:19:12.625Z,100020.81
2022-08-19T09:21:46.926Z,100020.98
2022-08-19T09:24:21.446Z,100017.52
2022-08-19T09:26:54.763Z,100025.85
2022-08-19T09:29:29.221Z,100022.31
2022-08-19T09:32:02.526Z,100018.88
2022-08-19T09:34:37.905Z,100027.73
2022-08-19T09:37:12.490Z,100032.03
2022-08-19T09:39:48.895Z,100027.48
2022-08-19T09:42:29.973Z,100022.19
2022-08-19T09:45:06.150Z,100027.34
2022-08-19T09:47:45.113Z,100019.29
2022-08-19T09:50:21.812Z,100024.44
2022-08-19T09:52:57.577Z,100025.38
2022-08-19T09:55:32.838Z,100025.52
2022-08-19T09:58:06.818Z,100024.75
2022-08-19T10:00:41.677Z,100023.34
2022-08-19T10:03:15.334Z,100028.44
2022-08-19T10:05:55.101Z,100032.34
2022-08-19T10:08:37.884Z,100034.05
2022-08-19T10:11:28.621Z,100035.12
2022-08-19T10:14:10.048Z,100024.66
2022-08-19T10:16:44.485Z,100029.94
2022-08-19T10:19:25.488Z,100026.69
2022-08-19T10:22:01.421Z,100030.76
2022-08-19T10:24:35.214Z,100029.68
2022-08-19T10:27:08.966Z,100017.46
2022-08-19T10:29:46.393Z,100030.54
2022-08-19T10:32:20.730Z,100026.19
2022-08-19T10:35:10.674Z,100019.97
2022-08-19T10:37:56.707Z,100017.29
2022-08-19T10:40:38.445Z,100019.27
2022-08-19T10:43:11.908Z,100010.90
2022-08-19T10:45:52.202Z,100007.23
2022-08-19T10:48:28.044Z,100008.77
2022-08-19T10:51:23.002Z,100004.58
2022-08-19T10:53:57.186Z,100004.10
2022-08-19T10:56:50.203Z,100007.78
2022-08-19T10:59:32.597Z,100001.87
2022-08-19T11:02:14.837Z,99997.80
2022-08-19T11:04:51.390Z,99994.52
2022-08-19T11:07:27.872Z,100000.54
2022-08-19T11:10:00.573Z,99993.00
2022-08-19T11:12:35.196Z,99994.78
2022-08-19T11:15:12.270Z,99989.95
2022-08-19T11:17:46.317Z,99989.75
2022-08-19T11:20:20.408Z,99985.63
2022-08-19T11:22:55.941Z,99983.98
2022-08-19T11:25:29.472Z,99985.84
2022-08-19T11:28:02.885Z,99981.23
2022-08-19T11:30:36.560Z,99977.43
2022-08-19T11:33:12.863Z,99963.07
2022-08-19T11:35:47.270Z,99969.50
2022-08-19T11:38:21.178Z,99962.92
2022-08-19T11:41:07.376Z,99952.52
2022-08-19T11:43:41.178Z,99944.05
2022-08-19T11:46:17.370Z,99946.79
2022-08-19T11:48:52.117Z,99945.27
2022-08-19T11:51:27.055Z,99940.33
2022-08-19T11:54:01.124Z,99946.11
2022-08-19T11:56:35.199Z,99951.45
2022-08-19T11:59:14.056Z,99946.55
2022-08-19T12:01:50.294Z,99943.97
2022-08-19T12:04:23.990Z,99935.60
2022-08-19T12:06:57.541Z,99932.53
2022-08-19T12:09:30.963Z,99925.68
2022-08-19T12:12:04.743Z,99925.37
2022-08-19T12:14:38.716Z,99921.50
2022-08-19T12:17:12.827Z,99920.84
2022-08-19T12:19:47.068Z,99925.70
2022-08-19T12:22:22.336Z,99926.73
2022-08-19T12:24:56.417Z,99916.83
2022-08-19T12:27:40.028Z,99920.49
2022-08-19T12:30:16.566Z,99922.52
2022-08-19T12:32:52.991Z,99921.11
2022-08-19T12:35:27.128Z,99918.61
2022-08-19T12:38:01.326Z,99914.47
2022-08-19T12:40:34.534Z,99916.00
2022-08-19T12:43:08.540Z,99918.85
2022-08-19T12:45:42.728Z,99914.30
2022-08-19T12:48:34.408Z,99910.33
2022-08-19T12:51:21.349Z,99914.37
2022-08-19T12:53:54.714Z,99907.87
2022-08-19T12:56:28.859Z,99915.33
2022-08-19T12:59:04.202Z,99914.60
2022-08-19T13:01:37.561Z,99911.68
2022-08-19T13:04:11.210Z,99915.23
2022-08-19T13:06:44.393Z,99920.61
2022-08-19T13:09:17.679Z,99925.04
2022-08-19T13:11:50.794Z,99921.42
2022-08-19T13:14:24.534Z,99920.86
2022-08-19T13:17:01.254Z,99916.39
2022-08-19T13:19:34.817Z,99908.87
2022-08-19T13:22:13.328Z,99914.98
2022-08-19T13:24:50.115Z,99912.28
2022-08-19T13:27:23.719Z,99908.68
2022-08-19T13:30:16.079Z,99908.48
2022-08-19T13:33:07.322Z,99908.22
2022-08-19T13:36:02.211Z,99905.80
2022-08-19T13:38:35.423Z,99905.54
2022-08-19T13:41:13.218Z,99910.90
2022-08-19T13:43:50.646Z,99902.77
2022-08-19T13:46:24.079Z,99904.11
2022-08-19T13:48:57.662Z,99907.20
2022-08-19T13:51:30.853Z,99908.39
2022-08-19T13:54:03.925Z,99908.38
2022-08-19T13:56:38.240Z,99910.63
2022-08-19T13:59:14.837Z,99909.80
2022-08-19T14:01:48.506Z,99915.81
2022-08-19T14:04:22.165Z,99910.92
2022-08-19T14:06:56.304Z,99909.42
2022-08-19T14:09:30.026Z,99904.29
2022-08-19T14:12:03.331Z,99902.63
2022-08-19T14:14:39.760Z,99897.06
2022-08-19T14:17:13.545Z,99897.77
2022-08-19T14:19:48.217Z,99901.77
2022-08-19T14:22:22.348Z,99908.52
2022-08-19T14:24:56.058Z,99896.29
2022-08-19T14:27:29.162Z,99895.29
2022-08-19T14:30:04.180Z,99897.17
2022-08-19T14:32:38.785Z,99901.18
2022-08-19T14:35:13.913Z,99901.84
2022-08-19T14:37:48.761Z,99901.58
2022-08-19T14:40:24.519Z,99899.07
2022-08-19T14:43:05.665Z,99898.33
2022-08-19T14:45:42.315Z,99895.93
2022-08-19T14:48:19.386Z,99901.73
2022-08-19T14:50:53.944Z,99900.02
2022-08-19T14:53:27.343Z,99899.54
2022-08-19T14:56:01.919Z,99891.39
2022-08-19T14:58:37.460Z,99899.26
2022-08-19T15:01:13.614Z,99894.56
2022-08-19T15:03:47.927Z,99893.25
2022-08-19T15:06:20.975Z,99891.96
2022-08-19T15:08:57.071Z,99878.80
2022-08-19T15:11:34.186Z,99884.84
2022-08-19T15:14:07.617Z,99874.49
2022-08-19T15:16:43.547Z,99881.09
2022-08-19T15:19:18.205Z,99879.66
2022-08-19T15:21:51.755Z,99874.19
2022-08-19T15:24:26.754Z,99880.98
2022-08-19T15:27:00.419Z,99874.70
2022-08-19T15:29:33.959Z,99876.75
2022-08-19T15:32:08.261Z,99873.41
2022-08-19T15:34:41.816Z,99876.49
2022-08-19T15:37:14.902Z,99876.61
2022-08-19T15:39:49.515Z,99878.84
2022-08-19T15:42:29.985Z,99878.88
2022-08-19T15:45:04.369Z,99876.81
2022-08-19T15:47:37.826Z,99871.55
2022-08-19T15:50:12.665Z,99874.64
2022-08-19T15:53:01.209Z,99880.70
2022-08-19T15:55:38.186Z,99882.04
2022-08-19T15:58:32.320Z,99883.40
2022-08-19T16:01:28.493Z,99889.59
2022-08-19T16:04:21.439Z,99888.45
2022-08-19T16:06:57.360Z,99882.69
2022-08-19T16:09:35.230Z,99888.58
2022-08-19T16:12:09.054Z,99899.87
2022-08-19T16:14:42.085Z,99901.29
2022-08-19T16:17:15.239Z,99896.86
2022-08-19T16:19:52.172Z,99895.30
2022-08-19T16:22:35.200Z,99896.27
2022-08-19T16:25:10.859Z,99892.73
2022-08-19T16:27:49.122Z,99901.49
2022-08-19T16:30:48.776Z,99902.27
2022-08-19T16:33:26.973Z,99903.82
2022-08-19T16:36:07.643Z,99905.44
2022-08-19T16:38:45.494Z,99907.40
2022-08-19T16:41:18.995Z,99916.23
2022-08-19T16:43:53.869Z,99911.02
2022-08-19T16:46:28.016Z,99920.19
2022-08-19T16:49:01.032Z,99927.33
2022-08-19T16:51:34.323Z,99926.93
2022-08-19T16:54:07.697Z,99926.67
2022-08-19T16:56:40.837Z,99928.36
2022-08-19T16:59:14.254Z,99925.11
2022-08-19T17:01:46.993Z,99923.70
2022-08-19T17:04:19.834Z,99936.06
2022-08-19T17:06:53.179Z,99943.02
2022-08-19T17:09:26.407Z,99947.24
2022-08-19T17:11:59.202Z,99947.98
2022-08-19T17:14:32.080Z,99940.36
2022-08-19T17:17:05.340Z,99946.59
2022-08-19T17:19:41.599Z,99951.91
2022-08-19T17:22:15.484Z,99952.54
2022-08-19T17:24:48.398Z,99956.67
2022-08-19T17:27:21.252Z,99957.82
2022-08-19T17:29:54.370Z,99953.31
2022-08-19T17:32:27.753Z,99956.45
2022-08-19T17:35:00.554Z,99955.98
2022-08-19T17:37:34.594Z,99960.02
2022-08-19T17:40:09.929Z,99969.58
2022-08-19T17:42:43.050Z,99973.38
2022-08-19T17:45:16.726Z,99971.41
2022-08-19T17:47:49.524Z,99967.27
2022-08-19T17:50:23.892Z,99972.15
2022-08-19T17:52:57.557Z,99980.70
2022-08-19T17:55:31.526Z,99989.67
2022-08-19T17:58:05.878Z,99990.80
2022-08-19T18:00:53.758Z,99981.26
2022-08-19T18:03:30.666Z,99989.67
2022-08-19T18:06:03.501Z,99990.08
2022-08-19T18:08:47.344Z,99990.98
2022-08-19T18:11:20.502Z,99981.10
2022-08-19T18:13:54.099Z,99976.27
2022-08-19T18:16:28.296Z,99974.05
2022-08-19T18:19:01.567Z,99984.40
2022-08-19T18:21:36.440Z,99981.13
2022-08-19T18:24:09.230Z,99984.03
2022-08-19T18:26:42.425Z,99971.74
2022-08-19T18:29:16.318Z,99985.56
2022-08-19T18:31:49.388Z,99986.48
2022-08-19T18:34:22.357Z,99984.84
2022-08-19T18:36:55.889Z,99989.47
2022-08-19T18:39:47.079Z,99987.80
2022-08-19T18:42:40.008Z,99986.65
2022-08-19T18:45:31.825Z,99999.28
2022-08-19T18:48:27.822Z,99995.20
2022-08-19T18:51:03.091Z,99995.60
2022-08-19T18:53:39.120Z,99992.95
2022-08-19T18:56:14.596Z,99980.30
2022-08-19T18:58:48.052Z,99977.55
2022-08-19T19:01:23.867Z,99988.04
2022-08-19T19:03:57.760Z,99988.70
2022-08-19T19:06:38.512Z,99986.20
2022-08-19T19:09:21.794Z,99988.45
2022-08-19T19:12:00.736Z,99991.39
2022-08-19T19:14:49.113Z,99989.59
2022-08-19T19:17:27.939Z,99990.70
2022-08-19T19:20:01.316Z,99982.33
2022-08-19T19:22:33.992Z,99986.55
2022-08-19T19:25:08.618Z,99986.33
2022-08-19T19:27:41.234Z,99988.56
2022-08-19T19:30:14.729Z,99989.83
2022-08-19T19:32:47.579Z,99990.11
2022-08-19T19:35:20.468Z,99978.74
2022-08-19T19:37:53.322Z,99986.48
2022-08-19T19:40:26.614Z,99994.00
2022-08-19T19:43:00.429Z,99980.39
2022-08-19T19:45:33.148Z,99988.43
2022-08-19T19:48:06.723Z,99991.52
2022-08-19T19:50:39.673Z,99991.37
2022-08-19T19:53:15.691Z,99991.68
2022-08-19T19:55:49.200Z,99993.64
2022-08-19T19:58:28.708Z,99994.13
2022-08-19T20:01:09.631Z,99985.37
2022-08-19T20:03:45.175Z,99999.52
2022-08-19T20:06:20.069Z,100002.58
2022-08-19T20:09:12.215Z,100003.42
2022-08-19T20:11:49.181Z,100005.80
2022-08-19T20:14:29.474Z,100012.88
2022-08-19T20:17:03.430Z,100000.71
2022-08-19T20:19:37.969Z,100007.84
2022-08-19T20:22:13.397Z,100002.19
2022-08-19T20:24:46.375Z,100002.65
2022-08-19T20:27:21.028Z,100004.36
2022-08-19T20:30:04.574Z,100004.05
2022-08-19T20:32:38.925Z,100003.34
2022-08-19T20:35:13.298Z,100001.81
2022-08-19T20:37:46.377Z,100003.14
2022-08-19T20:40:21.852Z,100007.46
2022-08-19T20:42:55.228Z,100005.16
2022-08-19T20:45:33.448Z,100005.42
2022-08-19T20:48:12.803Z,100005.36
2022-08-19T20:50:46.254Z,99996.29
2022-08-19T20:53:23.659Z,99992.83
2022-08-19T20:56:00.092Z,100005.38
2022-08-19T20:58:32.924Z,100006.77
2022-08-19T21:01:07.598Z,100006.60
2022-08-19T21:03:44.023Z,100007.14
2022-08-19T21:06:17.451Z,100008.60
2022-08-19T21:08:54.453Z,100003.57
2022-08-19T21:11:27.551Z,100001.65
2022-08-19T21:14:01.177Z,100005.27
2022-08-19T21:16:34.704Z,99999.69
2022-08-19T21:19:08.084Z,100013.45
2022-08-19T21:21:41.241Z,100013.64
2022-08-19T21:24:16.106Z,100007.64
2022-08-19T21:26:51.532Z,100012.86
2022-08-19T21:29:25.120Z,100012.36
2022-08-19T21:31:58.804Z,100009.00
2022-08-19T21:34:32.332Z,100009.56
2022-08-19T21:37:06.132Z,100009.76
2022-08-19T21:39:46.892Z,100010.38
2022-08-19T21:42:23.047Z,100009.21
2022-08-19T21:44:56.556Z,100011.91
2022-08-19T21:47:29.331Z,100004.89
2022-08-19T21:50:02.142Z,100011.28
2022-08-19T21:52:35.364Z,100006.00
2022-08-19T21:55:10.737Z,100015.30
2022-08-19T21:57:43.620Z,100017.16
2022-08-19T22:00:27.292Z,100020.58
2022-08-19T22:03:08.165Z,100022.83
2022-08-19T22:05:41.561Z,100011.55
2022-08-19T22:08:15.972Z,100013.05
2022-08-19T22:10:50.069Z,100012.31
2022-08-19T22:13:23.525Z,100015.25
2022-08-19T22:15:57.166Z,100015.90
2022-08-19T22:18:30.956Z,100017.60
2022-08-19T22:21:11.709Z,100016.65
2022-08-19T22:23:48.048Z,100019.06
2022-08-19T22:26:21.778Z,100016.24
2022-08-19T22:28:56.025Z,100012.69
2022-08-19T22:31:30.591Z,100014.09
2022-08-19T22:34:05.505Z,100012.66
2022-08-19T22:36:39.279Z,100008.13
2022-08-19T22:39:13.187Z,99999.19
2022-08-19T22:41:47.106Z,100004.50
2022-08-19T22:44:21.023Z,100005.25
2022-08-19T22:46:54.634Z,100005.10
2022-08-19T22:49:28.332Z,100011.40
2022-08-19T22:52:18.601Z,100010.88
2022-08-19T22:54:57.680Z,99997.83
2022-08-19T22:57:31.210Z,99997.23
2022-08-19T23:00:08.358Z,100007.02
2022-08-19T23:02:52.293Z,100021.94
2022-08-19T23:05:30.169Z,100023.16
2022-08-19T23:08:04.233Z,100027.98
2022-08-19T23:10:38.002Z,100026.10
2022-08-19T23:13:11.484Z,100025.32
2022-08-19T23:15:46.387Z,100017.55
2022-08-19T23:18:20.799Z,100029.27
2022-08-19T23:20:56.701Z,100029.48
2022-08-19T23:23:30.380Z,100029.93
2022-08-19T23:26:03.079Z,100024.50
2022-08-19T23:28:55.328Z,100021.33
2022-08-19T23:31:30.438Z,100029.20
2022-08-19T23:34:04.202Z,100032.90
2022-08-19T23:36:37.937Z,100035.66
2022-08-19T23:39:11.182Z,100035.60
2022-08-19T23:41:44.680Z,100037.11
2022-08-19T23:44:18.457Z,100037.24
2022-08-19T23:46:54.926Z,100035.56
2022-08-19T23:49:29.397Z,100031.17
2022-08-19T23:52:03.216Z,100037.71
2022-08-19T23:54:43.692Z,100044.95
2022-08-19T23:57:21.706Z,100046.59
2022-08-19T23:59:54.938Z,100035.93
